Time;durP1;ratioP1;P1;durP2;ratioP2;P2;SDS_P1;SDS_P2;PMS_P1;PMS_P2;Temp;Humidity;BMP_temperature;BMP_pressure;BME280_temperature;BME280_humidity;BME280_pressure;Samples;Min_cycle;Max_cycle;Signal;HPM_P1;HPM_P2
2022/11/02 00:00:22;;;;;;;6.75;2.08;;;12.40;99.90;;;;;;4939779;29;20054;-64
2022/11/02 00:02:47;;;;;;;6.10;1.50;;;12.40;99.90;;;;;;4956852;28;20039;-64
2022/11/02 00:05:13;;;;;;;7.95;2.10;;;12.30;99.90;;;;;;4957039;29;20163;-64
2022/11/02 00:07:40;;;;;;;7.78;1.17;;;12.20;99.90;;;;;;4938660;29;20055;-64
2022/11/02 00:10:07;;;;;;;10.00;1.85;;;12.10;99.90;;;;;;4939062;29;20090;-64
2022/11/02 00:12:32;;;;;;;8.77;1.33;;;12.20;99.90;;;;;;4956968;29;20043;-64
2022/11/02 00:14:58;;;;;;;5.60;2.35;;;12.40;99.90;;;;;;4955677;29;20050;-64
2022/11/02 00:17:24;;;;;;;7.55;1.20;;;12.20;99.90;;;;;;4939874;29;20051;-64
2022/11/02 00:19:49;;;;;;;4.47;1.40;;;12.10;99.90;;;;;;4939452;29;20043;-64
2022/11/02 00:22:15;;;;;;;9.93;2.03;;;12.10;99.90;;;;;;4953937;28;20082;-64
2022/11/02 00:24:41;;;;;;;8.48;1.70;;;12.10;99.90;;;;;;4939596;29;20047;-64
2022/11/02 00:27:06;;;;;;;4.82;1.10;;;12.10;99.90;;;;;;4956064;28;20041;-64
2022/11/02 00:29:33;;;;;;;5.57;2.13;;;12.00;99.90;;;;;;4952949;28;20078;-64
2022/11/02 00:31:59;;;;;;;6.00;1.17;;;12.00;99.90;;;;;;4956113;29;20086;-64
2022/11/02 00:34:24;;;;;;;5.80;1.00;;;12.00;99.90;;;;;;4922999;29;20039;-64
2022/11/02 00:36:50;;;;;;;5.60;1.48;;;11.90;99.90;;;;;;4956520;29;20039;-64
2022/11/02 00:39:16;;;;;;;3.67;0.90;;;11.90;99.90;;;;;;4956412;29;20031;-64
2022/11/02 00:41:42;;;;;;;2.17;1.42;;;11.70;99.90;;;;;;4954194;28;20035;-64
2022/11/02 00:44:07;;;;;;;3.42;0.88;;;11.70;99.90;;;;;;4956176;29;20027;-64
2022/11/02 00:46:33;;;;;;;5.32;1.05;;;11.60;99.90;;;;;;4956439;29;20117;-64
2022/11/02 00:48:59;;;;;;;5.07;1.55;;;;;;;;;;4956349;29;20055;-64
2022/11/02 00:51:24;;;;;;;3.97;1.08;;;11.80;99.90;;;;;;4939505;29;20047;-64
2022/11/02 00:53:50;;;;;;;2.60;1.00;;;11.70;99.90;;;;;;4956033;29;20042;-65
2022/11/02 00:56:15;;;;;;;4.07;0.80;;;11.70;99.90;;;;;;4953611;28;20413;-64
2022/11/02 00:58:41;;;;;;;3.55;0.88;;;11.80;99.90;;;;;;4938110;29;20047;-64
2022/11/02 01:01:07;;;;;;;2.50;0.95;;;11.60;99.90;;;;;;4938648;29;20122;-64
2022/11/02 01:03:33;;;;;;;2.63;0.85;;;11.60;99.90;;;;;;4956192;29;20071;-64
2022/11/02 01:05:58;;;;;;;4.30;1.10;;;11.60;99.90;;;;;;4956003;29;20043;-64
2022/11/02 01:08:24;;;;;;;3.88;1.05;;;11.60;99.90;;;;;;4938618;29;20413;-64
2022/11/02 01:10:49;;;;;;;3.33;0.90;;;11.30;99.90;;;;;;4954747;29;20035;-64
2022/11/02 01:13:15;;;;;;;3.15;1.05;;;11.30;99.90;;;;;;4945180;28;20035;-64
2022/11/02 01:15:42;;;;;;;1.25;0.80;;;11.60;99.90;;;;;;4955516;29;20070;-64
2022/11/02 01:18:08;;;;;;;2.88;1.02;;;11.70;99.90;;;;;;4938354;29;20042;-64
2022/11/02 01:20:33;;;;;;;3.08;1.02;;;11.50;99.90;;;;;;4937815;29;20046;-65
2022/11/02 01:22:59;;;;;;;3.15;1.27;;;11.50;99.90;;;;;;4955657;29;20035;-64
2022/11/02 01:25:24;;;;;;;3.17;1.10;;;11.40;99.90;;;;;;4936534;29;20125;-64
2022/11/02 01:27:50;;;;;;;3.92;1.08;;;11.50;99.90;;;;;;4937786;29;20043;-64
2022/11/02 01:30:16;;;;;;;3.83;1.58;;;11.40;99.90;;;;;;4955372;29;20035;-64
2022/11/02 01:32:41;;;;;;;4.97;1.33;;;11.40;99.90;;;;;;4952777;28;20088;-64
2022/11/02 01:35:07;;;;;;;3.72;1.15;;;11.50;99.90;;;;;;4937718;29;20126;-64
2022/11/02 01:37:34;;;;;;;3.25;1.08;;;11.30;99.90;;;;;;4938208;29;20035;-64
2022/11/02 01:39:59;;;;;;;3.85;1.30;;;11.10;99.90;;;;;;4954366;29;20047;-64
2022/11/02 01:42:27;;;;;;;4.10;1.40;;;11.20;99.90;;;;;;4955264;29;20043;-64
2022/11/02 01:44:53;;;;;;;5.13;1.70;;;11.10;99.90;;;;;;4953890;28;20042;-64
2022/11/02 01:47:26;;;;;;;7.93;2.83;;;11.40;99.90;;;;;;4935292;29;20043;-64
2022/11/02 01:49:55;;;;;;;3.65;1.58;;;;;;;;;;4938089;29;20046;-64
2022/11/02 01:52:31;;;;;;;6.10;2.25;;;11.60;99.90;;;;;;4937810;29;20050;-65
2022/11/02 01:55:19;;;;;;;6.53;1.73;;;11.50;99.90;;;;;;4936107;29;20501;-64
2022/11/02 01:57:51;;;;;;;7.35;2.17;;;11.60;99.90;;;;;;4937135;29;20062;-64
2022/11/02 02:00:17;;;;;;;14.25;3.03;;;11.70;99.90;;;;;;4925337;29;20055;-64
2022/11/02 02:03:03;;;;;;;7.05;1.92;;;11.70;99.90;;;;;;4937322;29;20043;-64
2022/11/02 02:05:32;;;;;;;8.40;2.22;;;11.80;99.90;;;;;;4937135;29;20142;-64
2022/11/02 02:07:59;;;;;;;6.97;2.00;;;11.80;99.90;;;;;;4955060;29;20102;-64
2022/11/02 02:10:25;;;;;;;5.97;2.20;;;11.90;99.90;;;;;;4924430;29;20102;-64
2022/11/02 02:12:51;;;;;;;8.35;2.30;;;;;;;;;;4953223;28;20047;-64
2022/11/02 02:15:16;;;;;;;6.75;2.00;;;11.90;99.90;;;;;;4954836;29;20430;-64
2022/11/02 02:17:49;;;;;;;8.57;2.28;;;12.00;99.90;;;;;;4954916;29;20134;-64
2022/11/02 02:20:54;;;;;;;5.32;2.33;;;12.00;99.90;;;;;;4937504;29;20055;-64
2022/11/02 02:23:50;;;;;;;3.38;2.25;;;12.20;99.90;;;;;;4954120;29;20050;-64
2022/11/02 02:26:51;;;;;;;5.30;1.60;;;11.90;99.90;;;;;;4945670;28;20044;-64
2022/11/02 02:29:27;;;;;;;2.22;0.90;;;11.90;99.90;;;;;;4942035;29;20035;-64
2022/11/02 02:32:11;;;;;;;3.25;1.20;;;11.80;99.90;;;;;;4937391;29;20468;-64
2022/11/02 02:34:51;;;;;;;2.35;0.90;;;11.90;99.90;;;;;;4928144;29;20047;-64
2022/11/02 02:37:23;;;;;;;1.67;1.08;;;11.90;99.90;;;;;;4915398;29;20044;-64
2022/11/02 02:40:03;;;;;;;2.80;0.90;;;11.90;99.90;;;;;;4937521;29;20516;-64
2022/11/02 02:42:30;;;;;;;4.55;1.45;;;11.80;99.90;;;;;;4937374;29;20477;-64
2022/11/02 02:45:28;;;;;;;3.10;1.20;;;11.90;99.90;;;;;;4954460;29;20039;-64
2022/11/02 02:48:06;;;;;;;2.25;0.80;;;11.70;99.90;;;;;;4900229;29;20087;-65
2022/11/02 02:51:02;;;;;;;1.67;0.85;;;11.80;99.90;;;;;;4948462;29;20082;-64
2022/11/02 02:53:40;;;;;;;3.30;1.10;;;11.70;99.90;;;;;;4926705;29;20055;-64
2022/11/02 02:56:07;;;;;;;3.60;1.35;;;11.80;99.90;;;;;;4954230;29;20098;-64
2022/11/02 02:58:48;;;;;;;4.00;0.95;;;11.90;99.90;;;;;;4919926;29;20514;-64
2022/11/02 03:01:15;;;;;;;5.28;1.20;;;11.70;99.90;;;;;;4941007;29;20047;-64
2022/11/02 03:03:42;;;;;;;2.85;1.02;;;11.60;99.90;;;;;;4957996;29;20406;-64
2022/11/02 03:06:08;;;;;;;2.60;0.60;;;11.60;99.90;;;;;;4958131;29;20050;-64
2022/11/02 03:08:37;;;;;;;6.43;1.63;;;11.80;99.90;;;;;;4940152;29;20044;-64
2022/11/02 03:11:17;;;;;;;5.65;1.13;;;11.60;99.90;;;;;;4940937;29;20055;-64
2022/11/02 03:14:01;;;;;;;6.15;1.23;;;;;;;;;;4956602;28;20043;-64
2022/11/02 03:17:13;;;;;;;5.73;1.47;;;11.60;99.90;;;;;;4954598;28;20102;-64
2022/11/02 03:19:44;;;;;;;3.63;1.08;;;11.70;99.90;;;;;;4957901;28;20056;-64
2022/11/02 03:22:31;;;;;;;7.00;1.23;;;11.60;99.90;;;;;;4957350;29;20065;-64
2022/11/02 03:25:18;;;;;;;5.38;2.40;;;11.30;99.90;;;;;;4940459;29;20058;-64
2022/11/02 03:28:05;;;;;;;7.28;1.58;;;11.40;99.90;;;;;;4957600;29;20553;-64
2022/11/02 03:30:36;;;;;;;5.70;1.65;;;11.50;99.90;;;;;;4940787;29;20446;-64
2022/11/02 03:33:19;;;;;;;9.45;2.20;;;11.50;99.90;;;;;;4939570;29;20375;-64
2022/11/02 03:35:55;;;;;;;7.43;1.67;;;11.50;99.90;;;;;;4956325;29;20063;-64
2022/11/02 03:38:31;;;;;;;7.50;2.60;;;11.40;99.90;;;;;;4957674;29;20529;-64
2022/11/02 03:41:00;;;;;;;8.50;1.35;;;;;;;;;;4939135;29;20038;-64
2022/11/02 03:43:26;;;;;;;6.72;1.48;;;11.60;99.90;;;;;;4932126;29;20557;-64
2022/11/02 03:45:56;;;;;;;10.05;1.42;;;11.60;99.90;;;;;;4957318;29;20051;-63
2022/11/02 03:48:28;;;;;;;11.45;2.00;;;11.60;99.90;;;;;;4940348;29;20438;-63
2022/11/02 03:50:57;;;;;;;4.55;1.10;;;11.50;99.90;;;;;;4939361;28;20490;-64
2022/11/02 03:53:42;;;;;;;7.55;1.45;;;11.40;99.90;;;;;;4957636;29;20417;-64
2022/11/02 03:56:16;;;;;;;9.55;1.52;;;11.50;99.90;;;;;;4939141;29;20048;-63
2022/11/02 03:58:42;;;;;;;13.48;1.95;;;;;;;;;;4957491;29;20470;-63
2022/11/02 04:01:08;;;;;;;6.88;1.80;;;11.60;99.90;;;;;;4937882;29;20086;-63
2022/11/02 04:03:39;;;;;;;4.65;1.55;;;11.50;99.90;;;;;;4939847;29;20481;-63
2022/11/02 04:06:05;;;;;;;6.32;1.20;;;11.50;99.90;;;;;;4945679;28;20047;-63
2022/11/02 04:08:41;;;;;;;7.82;1.65;;;11.40;99.90;;;;;;4956628;28;20146;-63
2022/11/02 04:16:35;;;;;;;10.20;2.08;;;11.40;99.90;;;;;;4939515;29;20478;-63
2022/11/02 04:27:14;;;;;;;7.28;1.35;;;11.30;99.90;;;;;;4944877;29;20122;-63
2022/11/02 04:29:40;;;;;;;6.22;1.77;;;11.40;99.90;;;;;;4956947;29;20171;-63
2022/11/02 04:32:05;;;;;;;4.72;1.67;;;11.30;99.90;;;;;;4953940;28;20035;-63
2022/11/02 04:34:31;;;;;;;8.10;1.92;;;;;;;;;;4955663;29;20035;-63
2022/11/02 04:36:57;;;;;;;11.35;2.15;;;;;;;;;;4956740;29;20137;-63
2022/11/02 04:39:22;;;;;;;9.55;2.05;;;11.30;99.90;;;;;;4923629;29;20048;-63
2022/11/02 04:41:48;;;;;;;14.40;2.53;;;11.60;99.90;;;;;;4955550;29;20042;-63
2022/11/02 04:44:14;;;;;;;9.23;1.98;;;;;;;;;;4939054;29;20102;-63
2022/11/02 04:46:42;;;;;;;10.18;1.83;;;11.30;99.90;;;;;;4954824;28;20058;-63
2022/11/02 04:49:08;;;;;;;8.40;2.55;;;11.20;99.90;;;;;;4956328;29;20043;-63
2022/11/02 04:51:34;;;;;;;8.55;2.13;;;11.30;99.90;;;;;;4956507;29;20401;-63
2022/11/02 04:54:01;;;;;;;11.60;2.20;;;11.30;99.90;;;;;;4939196;29;20391;-64
2022/11/02 04:56:27;;;;;;;10.38;2.65;;;11.30;99.90;;;;;;4936837;29;20589;-63
2022/11/02 04:58:56;;;;;;;7.72;2.47;;;11.30;99.90;;;;;;4956257;29;20446;-63
2022/11/02 05:01:24;;;;;;;8.20;2.33;;;11.30;99.90;;;;;;4953799;28;20127;-63
2022/11/02 05:03:51;;;;;;;7.38;2.17;;;11.30;99.90;;;;;;4955752;29;20039;-63
2022/11/02 05:06:18;;;;;;;7.30;1.90;;;11.20;99.90;;;;;;4954932;29;20039;-63
2022/11/02 05:08:44;;;;;;;8.93;2.28;;;11.30;99.90;;;;;;4938996;29;20039;-63
2022/11/02 05:11:10;;;;;;;10.68;2.42;;;11.10;99.90;;;;;;4956036;29;20050;-63
2022/11/02 05:13:37;;;;;;;8.30;2.67;;;11.30;99.90;;;;;;4955807;29;20035;-63
2022/11/02 05:16:03;;;;;;;13.00;3.13;;;;;;;;;;4955121;28;20118;-63
2022/11/02 05:18:29;;;;;;;10.77;2.70;;;11.20;99.90;;;;;;4955825;29;20043;-63
2022/11/02 05:20:58;;;;;;;10.30;2.90;;;11.30;99.90;;;;;;4954966;28;20039;-63
2022/11/02 05:23:23;;;;;;;11.20;2.63;;;11.40;99.90;;;;;;4946063;29;20039;-63
2022/11/02 05:25:58;;;;;;;11.40;2.72;;;11.50;99.90;;;;;;4937590;29;20051;-63
2022/11/02 05:28:24;;;;;;;10.17;3.10;;;11.30;99.90;;;;;;4937814;29;20043;-63
2022/11/02 05:30:50;;;;;;;13.13;2.28;;;11.40;99.90;;;;;;4955318;29;20043;-63
2022/11/02 05:33:16;;;;;;;12.73;2.92;;;11.40;99.90;;;;;;4938555;29;20039;-63
2022/11/02 05:35:42;;;;;;;16.73;2.85;;;11.20;99.90;;;;;;4936560;29;20046;-64
2022/11/02 05:38:08;;;;;;;10.48;2.60;;;11.60;99.90;;;;;;4922540;29;20035;-63
2022/11/02 05:40:36;;;;;;;12.32;2.50;;;11.30;99.90;;;;;;4920517;29;20047;-63
2022/11/02 05:43:03;;;;;;;9.82;2.42;;;11.20;99.90;;;;;;4955323;29;20494;-63
2022/11/02 05:45:29;;;;;;;12.23;2.30;;;11.30;99.90;;;;;;4938208;29;20043;-63
2022/11/02 05:47:55;;;;;;;12.50;2.30;;;11.40;99.90;;;;;;4955492;29;20035;-63
2022/11/02 05:50:20;;;;;;;10.60;2.10;;;11.20;99.90;;;;;;4938234;29;20058;-63
2022/11/02 05:52:47;;;;;;;7.78;2.55;;;11.10;99.90;;;;;;4955214;29;20474;-63
2022/11/02 05:55:12;;;;;;;16.17;2.97;;;11.10;99.90;;;;;;4936239;29;20122;-63
2022/11/02 05:57:38;;;;;;;8.70;2.35;;;11.10;99.90;;;;;;4937806;29;20134;-63
2022/11/02 06:00:05;;;;;;;9.52;2.28;;;11.20;99.90;;;;;;4937768;29;20039;-63
2022/11/02 06:02:33;;;;;;;12.90;2.90;;;11.20;99.90;;;;;;4937729;29;20131;-63
2022/11/02 06:04:58;;;;;;;5.63;2.15;;;11.30;99.90;;;;;;4954271;28;20035;-63
2022/11/02 06:07:24;;;;;;;9.85;2.30;;;11.10;99.90;;;;;;4937160;29;20055;-63
2022/11/02 06:09:50;;;;;;;7.80;2.75;;;11.20;99.90;;;;;;4955045;29;20054;-63
2022/11/02 06:12:16;;;;;;;7.78;2.00;;;;;;;;;;4937635;29;20544;-63
2022/11/02 06:14:41;;;;;;;11.68;2.65;;;11.00;99.90;;;;;;4937645;29;20074;-63
2022/11/02 06:17:07;;;;;;;6.28;2.60;;;11.20;99.90;;;;;;4954892;29;20032;-63
2022/11/02 06:19:32;;;;;;;11.27;2.80;;;11.30;99.90;;;;;;4954216;28;20094;-63
2022/11/02 06:21:58;;;;;;;9.63;2.40;;;11.20;99.90;;;;;;4935962;29;20045;-63
2022/11/02 06:24:23;;;;;;;10.80;2.60;;;11.10;99.90;;;;;;4954841;29;20054;-63
2022/11/02 06:26:49;;;;;;;8.82;3.80;;;11.20;99.90;;;;;;4937444;29;20134;-63
2022/11/02 06:29:14;;;;;;;10.48;2.88;;;11.10;99.90;;;;;;4954652;29;20035;-63
2022/11/02 06:31:40;;;;;;;7.75;2.65;;;;;;;;;;4938092;28;20054;-63
2022/11/02 06:34:06;;;;;;;9.38;2.72;;;11.20;99.90;;;;;;4957954;28;20054;-63
2022/11/02 06:36:32;;;;;;;10.68;2.33;;;11.10;99.90;;;;;;4942403;29;20035;-63
2022/11/02 06:38:57;;;;;;;11.15;2.40;;;11.10;99.90;;;;;;4959141;28;20094;-63
2022/11/02 06:41:23;;;;;;;12.48;2.30;;;11.10;99.90;;;;;;4960347;28;20043;-63
2022/11/02 06:43:48;;;;;;;17.02;3.30;;;11.10;99.90;;;;;;4961029;28;20039;-64
2022/11/02 06:46:14;;;;;;;16.60;2.63;;;11.10;99.90;;;;;;4960889;29;20037;-63
2022/11/02 06:48:39;;;;;;;12.55;3.20;;;11.00;99.90;;;;;;4942170;29;20051;-63
2022/11/02 06:51:05;;;;;;;10.98;2.55;;;11.10;99.90;;;;;;4961015;29;20401;-63
2022/11/02 06:53:31;;;;;;;18.10;3.45;;;11.10;99.90;;;;;;4961124;28;20039;-63
2022/11/02 06:55:58;;;;;;;13.13;3.17;;;11.20;99.90;;;;;;4941408;29;20086;-63
2022/11/02 06:58:25;;;;;;;18.88;3.35;;;11.20;99.90;;;;;;4960243;28;20046;-63
2022/11/02 07:00:56;;;;;;;17.52;2.90;;;11.30;99.90;;;;;;4943208;29;20047;-64
2022/11/02 07:03:22;;;;;;;16.65;2.88;;;;;;;;;;4942882;29;20082;-63
2022/11/02 07:05:51;;;;;;;10.15;2.60;;;11.30;99.90;;;;;;4938220;29;20075;-63
2022/11/02 07:08:18;;;;;;;13.18;2.38;;;11.20;99.90;;;;;;4943668;29;20042;-63
2022/11/02 07:10:44;;;;;;;16.15;2.60;;;11.00;99.90;;;;;;4960709;29;20099;-63
2022/11/02 07:13:10;;;;;;;13.57;2.97;;;11.00;99.90;;;;;;4950890;28;20043;-64
2022/11/02 07:15:35;;;;;;;16.05;2.95;;;11.20;99.90;;;;;;4960129;28;20047;-63
2022/11/02 07:18:01;;;;;;;12.82;2.17;;;;;;;;;;4960505;28;20481;-63
2022/11/02 07:20:29;;;;;;;12.10;2.42;;;11.00;99.90;;;;;;4960772;28;20058;-63
2022/11/02 07:22:56;;;;;;;13.18;2.65;;;11.00;99.90;;;;;;4960413;29;20116;-64
2022/11/02 07:25:24;;;;;;;18.73;3.22;;;11.10;99.90;;;;;;4932279;29;20036;-63
2022/11/02 07:27:50;;;;;;;12.35;3.63;;;;;;;;;;4939757;29;20065;-64
2022/11/02 07:30:15;;;;;;;10.65;2.38;;;11.30;99.90;;;;;;4967163;28;20493;-63
2022/11/02 07:32:42;;;;;;;10.05;1.90;;;11.10;99.90;;;;;;4960178;28;20043;-63
2022/11/02 07:35:10;;;;;;;10.82;2.50;;;11.10;99.90;;;;;;4938912;29;20043;-63
2022/11/02 07:37:35;;;;;;;7.63;1.77;;;11.10;99.90;;;;;;4959057;29;20421;-63
2022/11/02 07:40:01;;;;;;;8.02;2.15;;;11.10;99.90;;;;;;4959918;28;20035;-63
2022/11/02 07:42:27;;;;;;;7.43;1.83;;;11.00;99.90;;;;;;4959639;29;20442;-60
2022/11/02 07:44:52;;;;;;;12.48;3.08;;;11.10;99.90;;;;;;4939495;29;20457;-63
2022/11/02 07:47:18;;;;;;;6.60;1.77;;;11.10;99.90;;;;;;4956778;29;20401;-60
2022/11/02 07:49:43;;;;;;;9.68;2.00;;;11.00;99.90;;;;;;4956136;28;20501;-60
2022/11/02 07:52:09;;;;;;;8.80;1.63;;;11.50;99.90;;;;;;4957337;29;20549;-60
2022/11/02 07:54:34;;;;;;;8.98;1.95;;;11.30;99.90;;;;;;4923556;28;20494;-61
2022/11/02 07:57:00;;;;;;;7.47;2.30;;;11.30;99.90;;;;;;4956472;28;20062;-61
2022/11/02 07:59:26;;;;;;;7.53;2.05;;;11.40;99.90;;;;;;4935954;29;20058;-60
2022/11/02 08:01:52;;;;;;;6.13;1.60;;;11.50;99.90;;;;;;4939248;29;20051;-61
2022/11/02 08:04:17;;;;;;;7.82;1.83;;;11.70;99.90;;;;;;4923076;28;20513;-60
2022/11/02 08:06:43;;;;;;;8.05;1.35;;;11.70;99.90;;;;;;4939847;28;20078;-61
2022/11/02 08:09:08;;;;;;;5.47;1.50;;;11.60;99.90;;;;;;4956683;29;20058;-60
2022/11/02 08:11:34;;;;;;;4.25;1.30;;;11.80;99.90;;;;;;4956708;29;20383;-60
2022/11/02 08:14:01;;;;;;;12.50;2.38;;;11.80;99.90;;;;;;4939581;29;20058;-60
2022/11/02 08:16:27;;;;;;;16.40;2.25;;;11.70;99.90;;;;;;4955190;28;20054;-61
2022/11/02 08:18:52;;;;;;;6.60;1.52;;;11.60;99.90;;;;;;4956021;28;20045;-61
2022/11/02 08:21:18;;;;;;;6.07;1.45;;;11.60;99.90;;;;;;4952100;28;20413;-62
2022/11/02 08:23:44;;;;;;;21.25;2.25;;;12.10;99.90;;;;;;4954616;28;20078;-61
2022/11/02 08:26:10;;;;;;;5.63;1.58;;;12.10;99.90;;;;;;4937460;29;20042;-60
2022/11/02 08:28:39;;;;;;;8.23;1.92;;;12.40;99.90;;;;;;4955352;28;20450;-60
2022/11/02 08:31:06;;;;;;;5.45;1.27;;;12.80;99.90;;;;;;4955440;29;20046;-61
2022/11/02 08:33:32;;;;;;;7.22;1.50;;;13.10;99.90;;;;;;4930678;28;20050;-61
2022/11/02 08:36:04;;;;;;;6.05;1.60;;;13.30;99.90;;;;;;4953844;28;20039;-60
2022/11/02 08:38:30;;;;;;;7.05;3.20;;;13.50;99.90;;;;;;4953810;28;20043;-60
2022/11/02 08:40:56;;;;;;;6.25;1.52;;;13.80;99.90;;;;;;4934496;29;20039;-61
2022/11/02 08:43:21;;;;;;;11.10;1.95;;;13.90;99.90;;;;;;4954638;28;20039;-61
2022/11/02 08:45:47;;;;;;;8.05;2.10;;;14.20;99.90;;;;;;4953399;28;20071;-61
2022/11/02 08:48:13;;;;;;;6.97;1.17;;;14.10;99.90;;;;;;4953585;28;20039;-63
2022/11/02 08:50:39;;;;;;;5.80;1.15;;;14.80;99.90;;;;;;4955116;28;20118;-61
2022/11/02 08:53:05;;;;;;;6.22;1.50;;;15.60;99.90;;;;;;4954921;29;20039;-61
2022/11/02 08:55:31;;;;;;;7.93;1.27;;;17.10;99.90;;;;;;4948503;28;20494;-62
2022/11/02 08:57:58;;;;;;;5.22;1.17;;;17.90;99.90;;;;;;4937215;28;20050;-61
2022/11/02 09:00:26;;;;;;;6.32;1.25;;;18.60;99.90;;;;;;4936786;28;20106;-61
2022/11/02 09:03:03;;;;;;;5.55;1.20;;;19.10;99.90;;;;;;4936555;28;20078;-62
2022/11/02 09:05:31;;;;;;;9.05;1.40;;;19.20;99.90;;;;;;4937815;28;20047;-61
2022/11/02 09:07:58;;;;;;;3.55;0.98;;;19.20;99.90;;;;;;4952436;28;20103;-63
2022/11/02 09:10:25;;;;;;;7.25;2.08;;;18.70;99.90;;;;;;4935250;29;20047;-63
2022/11/02 09:12:51;;;;;;;6.82;0.77;;;18.80;99.90;;;;;;4942228;29;20094;-64
2022/11/02 09:15:16;;;;;;;6.95;1.10;;;18.30;99.90;;;;;;4955613;29;20502;-63
2022/11/02 09:17:45;;;;;;;3.28;0.82;;;17.90;99.90;;;;;;4937779;29;20058;-63
2022/11/02 09:20:11;;;;;;;6.57;1.08;;;17.90;99.90;;;;;;4955086;28;20556;-63
2022/11/02 09:22:36;;;;;;;9.02;0.90;;;17.80;99.90;;;;;;4956245;28;20040;-63
2022/11/02 09:25:02;;;;;;;5.20;1.00;;;18.00;99.90;;;;;;4950156;28;20039;-64
2022/11/02 09:27:27;;;;;;;8.65;1.20;;;18.40;99.90;;;;;;4948256;28;20090;-64
2022/11/02 09:29:53;;;;;;;13.80;1.67;;;18.90;99.90;;;;;;4932721;28;20047;-64
2022/11/02 09:32:18;;;;;;;9.73;1.05;;;20.20;99.90;;;;;;4952318;28;20039;-63
2022/11/02 09:34:46;;;;;;;10.05;1.17;;;20.70;99.90;;;;;;4955221;29;20043;-63
2022/11/02 09:37:11;;;;;;;5.82;1.10;;;20.20;99.90;;;;;;4950443;29;20035;-63
2022/11/02 09:39:37;;;;;;;6.68;1.85;;;19.50;99.90;;;;;;4952256;28;20528;-64
2022/11/02 09:42:05;;;;;;;13.00;2.85;;;19.00;99.90;;;;;;4953808;29;20035;-63
2022/11/02 09:45:09;;;;;;;7.88;1.98;;;18.60;99.90;;;;;;4928253;28;20382;-64
2022/11/02 09:47:43;;;;;;;8.85;1.67;;;17.90;99.90;;;;;;4953527;28;20135;-63
2022/11/02 09:50:16;;;;;;;8.40;1.13;;;17.50;99.90;;;;;;4954074;28;20035;-63
2022/11/02 09:52:44;;;;;;;11.45;1.60;;;17.20;99.90;;;;;;4952681;29;20043;-62
2022/11/02 09:55:18;;;;;;;9.07;1.15;;;16.40;99.90;;;;;;4954759;29;20043;-63
2022/11/02 09:57:47;;;;;;;6.47;1.08;;;16.00;99.90;;;;;;4950087;28;20383;-63
2022/11/02 10:00:14;;;;;;;12.63;1.40;;;16.00;99.90;;;;;;4954410;28;20110;-63
2022/11/02 10:03:01;;;;;;;7.40;1.00;;;15.90;99.90;;;;;;4935757;29;20042;-63
2022/11/02 10:05:52;;;;;;;5.55;1.15;;;15.90;99.90;;;;;;4936586;29;20159;-62
2022/11/02 10:08:29;;;;;;;15.23;2.47;;;15.80;99.90;;;;;;4954153;28;20039;-64
2022/11/02 10:11:50;;;;;;;10.70;2.10;;;15.40;99.90;;;;;;4954756;28;20074;-64
2022/11/02 10:14:22;;;;;;;6.95;1.35;;;15.20;99.90;;;;;;4916130;29;20055;-63
2022/11/02 10:17:17;;;;;;;11.00;1.40;;;15.20;99.90;;;;;;4932419;29;20054;-64
2022/11/02 10:19:49;;;;;;;9.95;1.42;;;15.30;99.90;;;;;;4930514;29;20409;-62
2022/11/02 10:22:15;;;;;;;8.98;1.65;;;15.30;99.90;;;;;;4953076;28;20490;-63
2022/11/02 10:24:45;;;;;;;8.07;1.50;;;15.10;99.90;;;;;;4954929;29;20049;-63
2022/11/02 10:27:20;;;;;;;13.63;2.00;;;15.20;99.90;;;;;;4937281;29;20046;-63
2022/11/02 10:29:54;;;;;;;10.73;1.65;;;15.20;99.90;;;;;;4937400;29;20043;-63
2022/11/02 10:32:20;;;;;;;11.20;1.90;;;15.40;99.90;;;;;;4936153;29;20134;-63
2022/11/02 10:34:46;;;;;;;10.40;1.70;;;15.30;99.90;;;;;;4954739;29;20126;-63
2022/11/02 10:37:30;;;;;;;8.77;1.33;;;15.10;99.90;;;;;;4948570;28;20040;-63
2022/11/02 10:40:13;;;;;;;10.13;1.85;;;15.00;99.90;;;;;;4953298;28;20102;-63
2022/11/02 10:43:10;;;;;;;4.38;1.23;;;14.80;99.90;;;;;;4952993;28;20110;-63
2022/11/02 10:46:03;;;;;;;9.48;2.10;;;14.80;99.90;;;;;;4936437;28;20098;-63
2022/11/02 10:48:33;;;;;;;10.85;1.63;;;14.70;99.90;;;;;;4945729;28;20039;-62
2022/11/02 10:51:07;;;;;;;12.60;1.92;;;14.70;99.90;;;;;;4953066;28;20036;-62
2022/11/02 10:53:40;;;;;;;7.57;1.58;;;14.80;99.90;;;;;;4953388;28;20451;-62
2022/11/02 10:56:14;;;;;;;8.80;2.10;;;14.50;99.90;;;;;;4928110;29;20052;-62
2022/11/02 10:58:56;;;;;;;12.70;1.80;;;14.60;99.90;;;;;;4933399;28;20058;-62
2022/11/02 11:01:22;;;;;;;11.77;1.38;;;14.60;99.90;;;;;;4952099;28;20405;-62
2022/11/02 11:04:00;;;;;;;5.53;1.63;;;14.50;99.90;;;;;;4936207;29;20035;-62
2022/11/02 11:06:38;;;;;;;8.65;1.67;;;14.20;99.90;;;;;;4953135;29;20042;-62
2022/11/02 11:09:24;;;;;;;8.05;1.17;;;14.40;99.90;;;;;;4953448;29;20047;-62
2022/11/02 11:12:19;;;;;;;6.47;1.60;;;14.20;99.90;;;;;;4950995;28;20050;-63
2022/11/02 11:14:50;;;;;;;5.57;1.45;;;14.10;99.90;;;;;;4953535;28;20066;-62
2022/11/02 11:17:23;;;;;;;13.80;1.50;;;14.30;99.90;;;;;;4954223;28;20509;-62
2022/11/02 11:19:56;;;;;;;7.50;1.50;;;14.10;99.90;;;;;;4954143;28;20442;-62
2022/11/02 11:22:32;;;;;;;8.18;1.35;;;14.00;99.90;;;;;;4926253;29;20057;-62
2022/11/02 11:25:20;;;;;;;5.57;1.33;;;13.80;99.90;;;;;;4941517;29;20049;-63
2022/11/02 11:27:53;;;;;;;6.32;1.42;;;13.80;99.90;;;;;;4938248;29;20216;-61
2022/11/02 11:30:27;;;;;;;4.20;1.00;;;13.90;99.90;;;;;;4955569;28;20181;-62
2022/11/02 11:32:55;;;;;;;7.53;1.30;;;13.90;99.90;;;;;;4940649;29;20047;-62
2022/11/02 11:35:21;;;;;;;8.52;1.15;;;14.20;99.90;;;;;;4957523;29;20051;-62
2022/11/02 11:37:56;;;;;;;5.75;1.25;;;14.40;99.90;;;;;;4939085;29;20505;-62
2022/11/02 11:40:23;;;;;;;8.65;1.42;;;14.10;99.90;;;;;;4938243;29;20048;-62
2022/11/02 11:42:51;;;;;;;6.35;1.15;;;14.10;99.90;;;;;;4955661;28;20067;-64
2022/11/02 11:45:44;;;;;;;12.23;1.60;;;13.90;99.90;;;;;;4956115;28;20119;-63
2022/11/02 11:48:43;;;;;;;7.88;1.35;;;14.00;99.90;;;;;;4938405;29;20074;-63
2022/11/02 11:51:21;;;;;;;5.25;1.08;;;14.00;99.90;;;;;;4938727;28;20039;-63
2022/11/02 11:54:21;;;;;;;11.07;1.30;;;14.20;99.90;;;;;;4939459;29;20050;-64
2022/11/02 11:56:48;;;;;;;6.95;0.95;;;14.20;99.90;;;;;;4934919;28;20078;-63
2022/11/02 11:59:27;;;;;;;10.23;1.67;;;14.20;99.90;;;;;;4937610;29;20039;-64
2022/11/02 12:01:56;;;;;;;8.63;1.77;;;14.40;99.90;;;;;;4936986;29;20039;-63
2022/11/02 12:04:30;;;;;;;7.65;1.42;;;14.40;99.90;;;;;;4956695;28;20417;-64
2022/11/02 12:07:10;;;;;;;6.45;1.70;;;14.60;99.90;;;;;;4934541;28;20050;-64
2022/11/02 12:09:59;;;;;;;11.20;3.05;;;14.60;99.90;;;;;;4953900;28;20046;-63
2022/11/02 12:12:50;;;;;;;12.88;2.78;;;14.50;99.90;;;;;;4956562;28;20041;-63
2022/11/02 12:15:34;;;;;;;11.20;1.65;;;14.70;99.90;;;;;;4955083;28;20046;-63
2022/11/02 12:18:15;;;;;;;11.38;1.65;;;14.80;99.90;;;;;;4937648;28;20116;-62
2022/11/02 12:20:55;;;;;;;6.70;1.55;;;14.70;99.90;;;;;;4955486;28;20139;-64
2022/11/02 12:23:52;;;;;;;5.82;1.30;;;14.90;99.90;;;;;;4948367;28;20122;-62
2022/11/02 12:26:45;;;;;;;14.15;1.52;;;15.00;99.90;;;;;;4956193;28;20121;-62
2022/11/02 12:29:48;;;;;;;8.65;1.38;;;15.10;99.90;;;;;;4955380;28;20069;-62
2022/11/02 12:32:43;;;;;;;7.13;1.77;;;15.30;99.90;;;;;;4938055;28;20130;-62
2022/11/02 12:35:30;;;;;;;10.60;1.42;;;15.20;99.90;;;;;;4955173;28;20035;-62
2022/11/02 12:38:16;;;;;;;14.52;2.30;;;15.20;99.90;;;;;;4956144;28;20046;-62
2022/11/02 12:41:01;;;;;;;8.52;1.90;;;15.00;99.90;;;;;;4938999;28;20393;-62
2022/11/02 12:43:47;;;;;;;8.68;1.65;;;15.10;99.90;;;;;;4938641;28;20390;-62
2022/11/02 12:46:19;;;;;;;11.80;1.77;;;14.90;99.90;;;;;;4957338;28;20067;-62
2022/11/02 12:49:03;;;;;;;8.48;2.25;;;14.90;99.90;;;;;;4936320;28;20047;-62
2022/11/02 12:51:38;;;;;;;13.57;2.23;;;14.50;99.90;;;;;;4949949;28;20059;-62
2022/11/02 12:54:10;;;;;;;10.93;2.67;;;14.70;99.90;;;;;;4954913;28;20301;-62
2022/11/02 12:56:49;;;;;;;9.93;1.45;;;14.70;99.90;;;;;;4955653;28;20047;-62
2022/11/02 12:59:29;;;;;;;10.73;1.40;;;14.60;99.90;;;;;;4936794;28;20043;-62
2022/11/02 13:02:02;;;;;;;9.85;1.77;;;14.70;99.90;;;;;;4954216;28;20508;-62
2022/11/02 13:04:43;;;;;;;7.95;1.35;;;15.10;99.90;;;;;;4955558;28;20039;-62
2022/11/02 13:07:13;;;;;;;9.13;1.60;;;14.90;99.90;;;;;;4955730;28;20118;-62
2022/11/02 13:09:54;;;;;;;9.00;1.38;;;15.10;99.90;;;;;;4935198;28;20532;-62
2022/11/02 13:12:22;;;;;;;15.50;2.40;;;14.90;99.90;;;;;;4935835;28;20597;-62
2022/11/02 13:14:50;;;;;;;11.10;1.58;;;14.70;99.90;;;;;;4953686;28;20121;-62
2022/11/02 13:17:27;;;;;;;11.75;2.00;;;14.80;99.90;;;;;;4938955;28;20043;-62
2022/11/02 13:20:00;;;;;;;11.95;1.50;;;14.70;99.90;;;;;;4935231;29;20383;-62
2022/11/02 13:22:33;;;;;;;6.25;1.77;;;14.50;99.90;;;;;;4937078;29;20118;-63